SCO15QR EGPH-EGNS
Flight info
| Callsign | SCO15QR |
|---|---|
| Flight time | 0h 30m |
| Altitude | 19000 |
| Route | TLA N864 DCS/N0393F180 DCT IOM |
| Aircraft | A320/M-SDE3FGHIRWY/LB1 |
Departure
| Time | 2026-05-08 09:16 |
|---|---|
| Airport | Edinburgh Airport (EGPH) |
Arrival
| Time | 2026-05-08 09:46 |
|---|---|
| Airport | Isle of Man Airport (EGNS) |
| Time | Latitude | Longitude | Altitude | Speed | Heading |
|---|---|---|---|---|---|
| 2026-05-08 09:01 | 55.94768 | -3.35552 | 112 ft | 0 kts | 208° |
| 2026-05-08 09:08 | 55.94771 | -3.35549 | 113 ft | 2 kts | 208° |
| 2026-05-08 09:09 | 55.94787 | -3.35534 | 113 ft | 3 kts | 208° |
| 2026-05-08 09:09 | 55.94803 | -3.35515 | 113 ft | 3 kts | 231° |
| 2026-05-08 09:09 | 55.94812 | -3.35486 | 113 ft | 3 kts | 271° |
| 2026-05-08 09:09 | 55.94809 | -3.35456 | 113 ft | 2 kts | 297° |
| 2026-05-08 09:10 | 55.94807 | -3.35451 | 114 ft | 0 kts | 298° |
| 2026-05-08 09:12 | 55.94809 | -3.35457 | 113 ft | 2 kts | 298° |
| 2026-05-08 09:12 | 55.94845 | -3.35573 | 113 ft | 17 kts | 298° |
| 2026-05-08 09:13 | 55.94906 | -3.35774 | 114 ft | 19 kts | 298° |
| 2026-05-08 09:13 | 55.95015 | -3.35826 | 114 ft | 19 kts | 29° |
| 2026-05-08 09:13 | 55.95107 | -3.35830 | 114 ft | 15 kts | 308° |
| 2026-05-08 09:13 | 55.95182 | -3.35963 | 115 ft | 17 kts | 328° |
| 2026-05-08 09:14 | 55.95266 | -3.35890 | 112 ft | 15 kts | 62° |
| 2026-05-08 09:14 | 55.95318 | -3.35733 | 114 ft | 14 kts | 58° |
| 2026-05-08 09:14 | 55.95367 | -3.35590 | 113 ft | 13 kts | 58° |
| 2026-05-08 09:14 | 55.95414 | -3.35455 | 112 ft | 12 kts | 58° |
| 2026-05-08 09:15 | 55.95479 | -3.35415 | 115 ft | 11 kts | 334° |
| 2026-05-08 09:15 | 55.95546 | -3.35490 | 114 ft | 13 kts | 326° |
| 2026-05-08 09:15 | 55.95551 | -3.35627 | 112 ft | 1 kts | 239° |
| 2026-05-08 09:16 | 55.95429 | -3.35986 | 111 ft | 74 kts | 239° |
| 2026-05-08 09:16 | 55.95049 | -3.37106 | 113 ft | 136 kts | 239° |
| 2026-05-08 09:16 | 55.94520 | -3.38650 | 649 ft | 148 kts | 240° |
| 2026-05-08 09:16 | 55.93966 | -3.40242 | 1513 ft | 150 kts | 238° |
| 2026-05-08 09:17 | 55.93426 | -3.41792 | 2318 ft | 149 kts | 240° |
| 2026-05-08 09:17 | 55.92844 | -3.43467 | 2820 ft | 169 kts | 238° |
| 2026-05-08 09:17 | 55.92183 | -3.45374 | 3269 ft | 193 kts | 239° |
| 2026-05-08 09:17 | 55.91435 | -3.47542 | 3788 ft | 218 kts | 238° |
| 2026-05-08 09:18 | 55.90877 | -3.49163 | 4171 ft | 234 kts | 238° |
| 2026-05-08 09:18 | 55.89726 | -3.52565 | 5331 ft | 247 kts | 239° |
| 2026-05-08 09:18 | 55.89141 | -3.54357 | 6064 ft | 248 kts | 239° |
| 2026-05-08 09:18 | 55.88211 | -3.56962 | 7095 ft | 251 kts | 227° |
| 2026-05-08 09:19 | 55.86705 | -3.58532 | 7996 ft | 260 kts | 193° |
| 2026-05-08 09:19 | 55.84892 | -3.58231 | 8950 ft | 273 kts | 160° |
| 2026-05-08 09:19 | 55.83389 | -3.56077 | 9918 ft | 287 kts | 130° |
| 2026-05-08 09:19 | 55.82166 | -3.53159 | 10488 ft | 303 kts | 138° |
| 2026-05-08 09:20 | 55.80430 | -3.50991 | 10791 ft | 320 kts | 158° |
| 2026-05-08 09:20 | 55.78287 | -3.49556 | 11067 ft | 339 kts | 167° |
| 2026-05-08 09:20 | 55.75962 | -3.48522 | 11658 ft | 348 kts | 170° |
| 2026-05-08 09:20 | 55.73575 | -3.47590 | 12436 ft | 354 kts | 170° |
| 2026-05-08 09:21 | 55.71164 | -3.46597 | 13225 ft | 359 kts | 169° |
| 2026-05-08 09:21 | 55.68733 | -3.45483 | 13992 ft | 364 kts | 168° |
| 2026-05-08 09:22 | 55.53781 | -3.37366 | 18108 ft | 385 kts | 167° |
| 2026-05-08 09:23 | 55.51209 | -3.36014 | 18695 ft | 387 kts | 169° |
| 2026-05-08 09:23 | 55.48560 | -3.35260 | 18971 ft | 384 kts | 179° |
| 2026-05-08 09:23 | 55.45880 | -3.35186 | 19050 ft | 393 kts | 183° |
| 2026-05-08 09:23 | 55.43088 | -3.35181 | 19053 ft | 410 kts | 183° |
| 2026-05-08 09:24 | 55.40204 | -3.35164 | 19048 ft | 417 kts | 182° |
| 2026-05-08 09:24 | 55.37297 | -3.35128 | 19046 ft | 419 kts | 182° |
| 2026-05-08 09:24 | 55.34384 | -3.35077 | 19054 ft | 419 kts | 182° |
| 2026-05-08 09:24 | 55.31465 | -3.35017 | 19063 ft | 420 kts | 182° |
| 2026-05-08 09:25 | 55.28543 | -3.34957 | 19060 ft | 420 kts | 182° |
| 2026-05-08 09:25 | 55.25622 | -3.34901 | 19067 ft | 420 kts | 182° |
| 2026-05-08 09:25 | 55.22695 | -3.34853 | 19060 ft | 420 kts | 182° |
| 2026-05-08 09:25 | 55.19774 | -3.34808 | 19063 ft | 420 kts | 182° |
| 2026-05-08 09:26 | 55.16847 | -3.34763 | 19061 ft | 420 kts | 182° |
| 2026-05-08 09:26 | 55.13927 | -3.34718 | 19065 ft | 421 kts | 182° |
| 2026-05-08 09:26 | 55.10993 | -3.34671 | 19061 ft | 421 kts | 182° |
| 2026-05-08 09:26 | 55.08066 | -3.34619 | 19061 ft | 421 kts | 182° |
| 2026-05-08 09:27 | 55.05134 | -3.34568 | 19056 ft | 421 kts | 182° |
| 2026-05-08 09:27 | 55.02206 | -3.34517 | 19056 ft | 421 kts | 182° |
| 2026-05-08 09:27 | 54.99278 | -3.34469 | 19053 ft | 421 kts | 182° |
| 2026-05-08 09:27 | 54.96347 | -3.34421 | 19055 ft | 421 kts | 182° |
| 2026-05-08 09:28 | 54.93425 | -3.34377 | 19055 ft | 421 kts | 182° |
| 2026-05-08 09:28 | 54.90489 | -3.34336 | 19054 ft | 421 kts | 182° |
| 2026-05-08 09:28 | 54.87559 | -3.34303 | 19052 ft | 421 kts | 182° |
| 2026-05-08 09:28 | 54.84628 | -3.34269 | 19054 ft | 421 kts | 182° |
| 2026-05-08 09:29 | 54.81695 | -3.34229 | 19059 ft | 421 kts | 182° |
| 2026-05-08 09:29 | 54.78765 | -3.34229 | 19050 ft | 420 kts | 185° |
| 2026-05-08 09:29 | 54.75885 | -3.34941 | 19059 ft | 418 kts | 195° |
| 2026-05-08 09:29 | 54.73154 | -3.36597 | 19053 ft | 415 kts | 206° |
| 2026-05-08 09:30 | 54.70675 | -3.39129 | 19055 ft | 414 kts | 217° |
| 2026-05-08 09:30 | 54.68548 | -3.42386 | 19056 ft | 414 kts | 227° |
| 2026-05-08 09:30 | 54.66735 | -3.46243 | 19059 ft | 414 kts | 232° |
| 2026-05-08 09:30 | 54.64949 | -3.50237 | 19057 ft | 414 kts | 232° |
| 2026-05-08 09:31 | 54.63206 | -3.54112 | 19060 ft | 415 kts | 232° |
| 2026-05-08 09:31 | 54.61434 | -3.58034 | 19063 ft | 415 kts | 231° |
| 2026-05-08 09:31 | 54.59657 | -3.61959 | 19063 ft | 415 kts | 231° |
| 2026-05-08 09:31 | 54.57877 | -3.65886 | 19064 ft | 415 kts | 232° |
| 2026-05-08 09:32 | 54.56100 | -3.69797 | 19066 ft | 415 kts | 231° |
| 2026-05-08 09:32 | 54.54316 | -3.73715 | 19068 ft | 415 kts | 231° |
| 2026-05-08 09:32 | 54.52532 | -3.77632 | 19069 ft | 416 kts | 231° |
| 2026-05-08 09:32 | 54.50750 | -3.81548 | 19043 ft | 416 kts | 231° |
| 2026-05-08 09:33 | 54.48971 | -3.85456 | 18624 ft | 413 kts | 231° |
| 2026-05-08 09:33 | 54.47205 | -3.89338 | 18269 ft | 411 kts | 231° |
| 2026-05-08 09:33 | 54.45448 | -3.93200 | 17886 ft | 409 kts | 231° |
| 2026-05-08 09:33 | 54.43697 | -3.97044 | 17487 ft | 407 kts | 231° |
| 2026-05-08 09:34 | 54.42146 | -4.01084 | 17126 ft | 406 kts | 244° |
| 2026-05-08 09:34 | 54.41358 | -4.05733 | 16754 ft | 407 kts | 258° |
| 2026-05-08 09:34 | 54.40912 | -4.10522 | 16370 ft | 406 kts | 259° |
| 2026-05-08 09:34 | 54.40482 | -4.15294 | 16022 ft | 401 kts | 259° |
| 2026-05-08 09:35 | 54.40064 | -4.19945 | 15659 ft | 388 kts | 259° |
| 2026-05-08 09:35 | 54.39605 | -4.24436 | 15236 ft | 376 kts | 253° |
| 2026-05-08 09:35 | 54.38518 | -4.28408 | 14823 ft | 364 kts | 233° |
| 2026-05-08 09:35 | 54.36764 | -4.31454 | 14437 ft | 356 kts | 220° |
| 2026-05-08 09:36 | 54.34876 | -4.34119 | 14045 ft | 348 kts | 219° |
| 2026-05-08 09:36 | 54.33014 | -4.36719 | 13634 ft | 341 kts | 219° |
| 2026-05-08 09:36 | 54.31220 | -4.39222 | 13081 ft | 325 kts | 219° |
| 2026-05-08 09:36 | 54.29506 | -4.41612 | 12417 ft | 313 kts | 219° |
| 2026-05-08 09:37 | 54.27753 | -4.43698 | 11771 ft | 303 kts | 205° |
| 2026-05-08 09:37 | 54.25730 | -4.44464 | 11133 ft | 297 kts | 183° |
| 2026-05-08 09:37 | 54.23683 | -4.44406 | 10510 ft | 291 kts | 179° |
| 2026-05-08 09:37 | 54.21680 | -4.44273 | 9891 ft | 285 kts | 179° |
| 2026-05-08 09:38 | 54.19715 | -4.44137 | 9213 ft | 281 kts | 179° |
| 2026-05-08 09:38 | 54.17779 | -4.44008 | 8549 ft | 276 kts | 179° |
| 2026-05-08 09:38 | 54.15885 | -4.43884 | 7982 ft | 268 kts | 179° |
| 2026-05-08 09:38 | 54.14051 | -4.43765 | 7503 ft | 259 kts | 179° |
| 2026-05-08 09:39 | 54.12282 | -4.43651 | 7017 ft | 251 kts | 179° |
| 2026-05-08 09:39 | 54.10566 | -4.43540 | 6546 ft | 243 kts | 179° |
| 2026-05-08 09:39 | 54.08896 | -4.43435 | 6050 ft | 237 kts | 179° |
| 2026-05-08 09:39 | 54.07266 | -4.43338 | 5551 ft | 232 kts | 179° |
| 2026-05-08 09:40 | 54.05671 | -4.43236 | 5058 ft | 227 kts | 175° |
| 2026-05-08 09:40 | 54.04218 | -4.42317 | 4574 ft | 225 kts | 142° |
| 2026-05-08 09:40 | 54.03311 | -4.40177 | 4075 ft | 228 kts | 109° |
| 2026-05-08 09:40 | 54.03246 | -4.37507 | 3583 ft | 230 kts | 76° |
| 2026-05-08 09:41 | 54.03901 | -4.35062 | 3099 ft | 231 kts | 61° |
| 2026-05-08 09:41 | 54.04897 | -4.32913 | 2598 ft | 231 kts | 36° |
| 2026-05-08 09:41 | 54.06376 | -4.31978 | 2133 ft | 228 kts | 2° |
| 2026-05-08 09:41 | 54.07877 | -4.32240 | 2046 ft | 207 kts | 341° |
| 2026-05-08 09:42 | 54.09123 | -4.33231 | 2077 ft | 192 kts | 323° |
| 2026-05-08 09:42 | 54.10087 | -4.34726 | 2065 ft | 185 kts | 306° |
| 2026-05-08 09:42 | 54.10725 | -4.36525 | 2064 ft | 171 kts | 290° |
| 2026-05-08 09:42 | 54.11034 | -4.38410 | 2056 ft | 159 kts | 275° |
| 2026-05-08 09:43 | 54.11055 | -4.40235 | 2059 ft | 154 kts | 262° |
| 2026-05-08 09:43 | 54.10857 | -4.42016 | 2063 ft | 152 kts | 256° |
| 2026-05-08 09:43 | 54.10641 | -4.43775 | 2034 ft | 150 kts | 256° |
| 2026-05-08 09:43 | 54.10435 | -4.45444 | 1931 ft | 139 kts | 256° |
| 2026-05-08 09:44 | 54.10239 | -4.47030 | 1761 ft | 135 kts | 256° |
| 2026-05-08 09:44 | 54.10047 | -4.48581 | 1577 ft | 133 kts | 256° |
| 2026-05-08 09:44 | 54.09856 | -4.50122 | 1405 ft | 133 kts | 256° |
| 2026-05-08 09:44 | 54.09667 | -4.51656 | 1240 ft | 133 kts | 256° |
| 2026-05-08 09:45 | 54.09479 | -4.53192 | 1054 ft | 131 kts | 256° |
| 2026-05-08 09:45 | 54.09292 | -4.54714 | 857 ft | 131 kts | 256° |
| 2026-05-08 09:45 | 54.09099 | -4.56232 | 689 ft | 131 kts | 256° |
| 2026-05-08 09:45 | 54.08904 | -4.57747 | 517 ft | 131 kts | 255° |
| 2026-05-08 09:46 | 54.08725 | -4.59265 | 315 ft | 129 kts | 256° |
| 2026-05-08 09:46 | 54.08533 | -4.60756 | 123 ft | 128 kts | 255° |
| 2026-05-08 09:46 | 54.08356 | -4.62163 | 41 ft | 94 kts | 258° |
| 2026-05-08 09:46 | 54.08291 | -4.62672 | 41 ft | 26 kts | 259° |
| 2026-05-08 09:47 | 54.08320 | -4.62901 | 43 ft | 10 kts | 299° |
| 2026-05-08 09:47 | 54.08375 | -4.62960 | 43 ft | 9 kts | 346° |
| 2026-05-08 09:47 | 54.08437 | -4.62986 | 43 ft | 9 kts | 346° |